sensor_id;sensor_type;location;lat;lon;timestamp;temperature;humidity
66568;DHT22;53422;49.296;6.900;2024-03-02T00:00:21;6.70;99.90
66568;DHT22;53422;49.296;6.900;2024-03-02T00:02:49;6.70;99.90
66568;DHT22;53422;49.296;6.900;2024-03-02T00:05:17;6.70;99.90
66568;DHT22;53422;49.296;6.900;2024-03-02T00:07:44;6.70;99.90
66568;DHT22;53422;49.296;6.900;2024-03-02T00:10:12;6.60;99.90
66568;DHT22;53422;49.296;6.900;2024-03-02T00:12:40;6.60;99.90
66568;DHT22;53422;49.296;6.900;2024-03-02T00:18:40;6.80;99.90
66568;DHT22;53422;49.296;6.900;2024-03-02T00:21:07;6.90;99.90
66568;DHT22;53422;49.296;6.900;2024-03-02T00:23:35;6.90;99.90
66568;DHT22;53422;49.296;6.900;2024-03-02T00:26:01;7.00;99.90
66568;DHT22;53422;49.296;6.900;2024-03-02T00:28:30;6.90;99.90
66568;DHT22;53422;49.296;6.900;2024-03-02T00:31:08;6.90;99.90
66568;DHT22;53422;49.296;6.900;2024-03-02T00:33:42;6.90;99.90
66568;DHT22;53422;49.296;6.900;2024-03-02T00:36:09;6.80;99.90
66568;DHT22;53422;49.296;6.900;2024-03-02T00:38:49;6.90;99.90
66568;DHT22;53422;49.296;6.900;2024-03-02T00:41:29;6.80;99.90
66568;DHT22;53422;49.296;6.900;2024-03-02T00:44:04;6.90;99.90
66568;DHT22;53422;49.296;6.900;2024-03-02T00:46:35;6.90;99.90
66568;DHT22;53422;49.296;6.900;2024-03-02T00:49:03;6.90;99.90
66568;DHT22;53422;49.296;6.900;2024-03-02T00:51:34;7.00;99.90
66568;DHT22;53422;49.296;6.900;2024-03-02T00:54:03;7.00;99.90
66568;DHT22;53422;49.296;6.900;2024-03-02T00:56:30;7.00;99.90
66568;DHT22;53422;49.296;6.900;2024-03-02T00:58:56;7.00;99.90
66568;DHT22;53422;49.296;6.900;2024-03-02T01:01:22;7.00;99.90
66568;DHT22;53422;49.296;6.900;2024-03-02T01:03:48;7.00;99.90
66568;DHT22;53422;49.296;6.900;2024-03-02T01:06:15;6.90;99.90
66568;DHT22;53422;49.296;6.900;2024-03-02T01:08:41;6.90;99.90
66568;DHT22;53422;49.296;6.900;2024-03-02T01:11:07;6.90;99.90
66568;DHT22;53422;49.296;6.900;2024-03-02T01:13:32;7.00;99.90
66568;DHT22;53422;49.296;6.900;2024-03-02T01:15:58;7.00;99.90
66568;DHT22;53422;49.296;6.900;2024-03-02T01:18:24;7.00;99.90
66568;DHT22;53422;49.296;6.900;2024-03-02T01:20:50;7.00;99.90
66568;DHT22;53422;49.296;6.900;2024-03-02T01:23:24;7.00;99.90
66568;DHT22;53422;49.296;6.900;2024-03-02T01:25:50;6.90;99.90
66568;DHT22;53422;49.296;6.900;2024-03-02T01:28:17;6.90;99.90
66568;DHT22;53422;49.296;6.900;2024-03-02T01:30:43;6.80;99.90
66568;DHT22;53422;49.296;6.900;2024-03-02T01:33:08;6.90;99.90
66568;DHT22;53422;49.296;6.900;2024-03-02T01:35:34;6.90;99.90
66568;DHT22;53422;49.296;6.900;2024-03-02T01:38:00;6.90;99.90
66568;DHT22;53422;49.296;6.900;2024-03-02T01:40:26;6.90;99.90
66568;DHT22;53422;49.296;6.900;2024-03-02T01:42:53;6.90;99.90
66568;DHT22;53422;49.296;6.900;2024-03-02T01:45:20;6.80;99.90
66568;DHT22;53422;49.296;6.900;2024-03-02T01:47:46;6.90;99.90
66568;DHT22;53422;49.296;6.900;2024-03-02T01:50:12;6.80;99.90
66568;DHT22;53422;49.296;6.900;2024-03-02T01:52:39;6.80;99.90
66568;DHT22;53422;49.296;6.900;2024-03-02T01:55:06;6.90;99.90
66568;DHT22;53422;49.296;6.900;2024-03-02T01:57:33;6.90;99.90
66568;DHT22;53422;49.296;6.900;2024-03-02T01:59:59;6.80;99.90
66568;DHT22;53422;49.296;6.900;2024-03-02T02:02:25;6.90;99.90
66568;DHT22;53422;49.296;6.900;2024-03-02T02:04:51;6.80;99.90
66568;DHT22;53422;49.296;6.900;2024-03-02T02:07:16;6.80;99.90
66568;DHT22;53422;49.296;6.900;2024-03-02T02:09:42;6.80;99.90
66568;DHT22;53422;49.296;6.900;2024-03-02T02:12:09;6.70;99.90
66568;DHT22;53422;49.296;6.900;2024-03-02T02:14:36;6.70;99.90
66568;DHT22;53422;49.296;6.900;2024-03-02T02:17:02;6.70;99.90
66568;DHT22;53422;49.296;6.900;2024-03-02T02:19:28;6.80;99.90
66568;DHT22;53422;49.296;6.900;2024-03-02T02:21:54;6.70;99.90
66568;DHT22;53422;49.296;6.900;2024-03-02T02:24:20;6.80;99.90
66568;DHT22;53422;49.296;6.900;2024-03-02T02:26:45;6.70;99.90
66568;DHT22;53422;49.296;6.900;2024-03-02T02:29:11;6.70;99.90
66568;DHT22;53422;49.296;6.900;2024-03-02T02:31:38;6.80;99.90
66568;DHT22;53422;49.296;6.900;2024-03-02T02:34:04;6.70;99.90
66568;DHT22;53422;49.296;6.900;2024-03-02T02:36:30;6.70;99.90
66568;DHT22;53422;49.296;6.900;2024-03-02T02:38:56;6.80;99.90
66568;DHT22;53422;49.296;6.900;2024-03-02T02:41:21;6.80;99.90
66568;DHT22;53422;49.296;6.900;2024-03-02T02:43:47;6.80;99.90
66568;DHT22;53422;49.296;6.900;2024-03-02T02:46:13;6.70;99.90
66568;DHT22;53422;49.296;6.900;2024-03-02T02:48:39;6.70;99.90
66568;DHT22;53422;49.296;6.900;2024-03-02T02:51:04;6.70;99.90
66568;DHT22;53422;49.296;6.900;2024-03-02T02:53:30;6.70;99.90
66568;DHT22;53422;49.296;6.900;2024-03-02T02:55:55;6.70;99.90
66568;DHT22;53422;49.296;6.900;2024-03-02T02:58:21;6.70;99.90
66568;DHT22;53422;49.296;6.900;2024-03-02T03:00:47;6.70;99.90
66568;DHT22;53422;49.296;6.900;2024-03-02T03:03:12;6.80;99.90
66568;DHT22;53422;49.296;6.900;2024-03-02T03:05:38;6.80;99.90
66568;DHT22;53422;49.296;6.900;2024-03-02T03:08:03;6.80;99.90
66568;DHT22;53422;49.296;6.900;2024-03-02T03:10:29;6.80;99.90
66568;DHT22;53422;49.296;6.900;2024-03-02T03:12:55;6.80;99.90
66568;DHT22;53422;49.296;6.900;2024-03-02T03:15:21;6.80;99.90
66568;DHT22;53422;49.296;6.900;2024-03-02T03:17:47;6.90;99.90
66568;DHT22;53422;49.296;6.900;2024-03-02T03:20:13;7.00;99.90
66568;DHT22;53422;49.296;6.900;2024-03-02T03:22:40;6.90;99.90
66568;DHT22;53422;49.296;6.900;2024-03-02T03:25:06;7.00;99.90
66568;DHT22;53422;49.296;6.900;2024-03-02T03:27:33;6.90;99.90
66568;DHT22;53422;49.296;6.900;2024-03-02T03:29:59;6.80;99.90
66568;DHT22;53422;49.296;6.900;2024-03-02T03:32:24;6.80;99.90
66568;DHT22;53422;49.296;6.900;2024-03-02T03:34:50;6.80;99.90
66568;DHT22;53422;49.296;6.900;2024-03-02T03:37:16;6.80;99.90
66568;DHT22;53422;49.296;6.900;2024-03-02T03:39:41;6.90;99.90
66568;DHT22;53422;49.296;6.900;2024-03-02T03:42:07;7.00;99.90
66568;DHT22;53422;49.296;6.900;2024-03-02T03:44:33;6.90;99.90
66568;DHT22;53422;49.296;6.900;2024-03-02T03:46:59;6.90;99.90
66568;DHT22;53422;49.296;6.900;2024-03-02T03:49:26;6.90;99.90
66568;DHT22;53422;49.296;6.900;2024-03-02T03:51:51;6.90;99.90
66568;DHT22;53422;49.296;6.900;2024-03-02T03:54:17;6.90;99.90
66568;DHT22;53422;49.296;6.900;2024-03-02T03:56:43;6.90;99.90
66568;DHT22;53422;49.296;6.900;2024-03-02T03:59:08;7.00;99.90
66568;DHT22;53422;49.296;6.900;2024-03-02T04:01:34;6.90;99.90
66568;DHT22;53422;49.296;6.900;2024-03-02T04:04:00;6.90;99.90
66568;DHT22;53422;49.296;6.900;2024-03-02T04:06:27;6.90;99.90
66568;DHT22;53422;49.296;6.900;2024-03-02T04:08:53;6.90;99.90
66568;DHT22;53422;49.296;6.900;2024-03-02T04:11:18;6.90;99.90
66568;DHT22;53422;49.296;6.900;2024-03-02T04:13:44;7.00;99.90
66568;DHT22;53422;49.296;6.900;2024-03-02T04:16:09;7.00;99.90
66568;DHT22;53422;49.296;6.900;2024-03-02T04:18:35;6.90;99.90
66568;DHT22;53422;49.296;6.900;2024-03-02T04:21:01;6.90;99.90
66568;DHT22;53422;49.296;6.900;2024-03-02T04:23:26;7.00;99.90
66568;DHT22;53422;49.296;6.900;2024-03-02T04:25:52;6.90;99.90
66568;DHT22;53422;49.296;6.900;2024-03-02T04:28:18;6.90;99.90
66568;DHT22;53422;49.296;6.900;2024-03-02T04:30:44;6.90;99.90
66568;DHT22;53422;49.296;6.900;2024-03-02T04:33:09;6.90;99.90
66568;DHT22;53422;49.296;6.900;2024-03-02T04:35:38;6.90;99.90
66568;DHT22;53422;49.296;6.900;2024-03-02T04:38:04;6.90;99.90
66568;DHT22;53422;49.296;6.900;2024-03-02T04:40:29;7.00;99.90
66568;DHT22;53422;49.296;6.900;2024-03-02T04:42:55;7.00;99.90
66568;DHT22;53422;49.296;6.900;2024-03-02T04:45:21;7.00;99.90
66568;DHT22;53422;49.296;6.900;2024-03-02T04:47:46;7.00;99.90
66568;DHT22;53422;49.296;6.900;2024-03-02T04:50:12;7.00;99.90
66568;DHT22;53422;49.296;6.900;2024-03-02T04:52:38;7.10;99.90
66568;DHT22;53422;49.296;6.900;2024-03-02T04:55:03;7.00;99.90
66568;DHT22;53422;49.296;6.900;2024-03-02T04:57:43;7.00;99.90
66568;DHT22;53422;49.296;6.900;2024-03-02T05:00:09;7.00;99.90
66568;DHT22;53422;49.296;6.900;2024-03-02T05:02:35;7.00;99.90
66568;DHT22;53422;49.296;6.900;2024-03-02T05:05:01;7.00;99.90
66568;DHT22;53422;49.296;6.900;2024-03-02T05:07:28;7.00;99.90
66568;DHT22;53422;49.296;6.900;2024-03-02T05:09:53;7.00;99.90
66568;DHT22;53422;49.296;6.900;2024-03-02T05:12:19;7.00;99.90
66568;DHT22;53422;49.296;6.900;2024-03-02T05:15:04;7.00;99.90
66568;DHT22;53422;49.296;6.900;2024-03-02T05:17:29;7.00;99.90
66568;DHT22;53422;49.296;6.900;2024-03-02T05:19:55;7.00;99.90
66568;DHT22;53422;49.296;6.900;2024-03-02T05:22:21;7.00;99.90
66568;DHT22;53422;49.296;6.900;2024-03-02T05:24:46;7.10;99.90
66568;DHT22;53422;49.296;6.900;2024-03-02T05:27:12;7.00;99.90
66568;DHT22;53422;49.296;6.900;2024-03-02T05:29:37;7.00;99.90
66568;DHT22;53422;49.296;6.900;2024-03-02T05:32:03;7.00;99.90
66568;DHT22;53422;49.296;6.900;2024-03-02T05:34:29;7.00;99.90
66568;DHT22;53422;49.296;6.900;2024-03-02T05:36:56;7.00;99.90
66568;DHT22;53422;49.296;6.900;2024-03-02T05:39:23;7.10;99.90
66568;DHT22;53422;49.296;6.900;2024-03-02T05:41:48;7.00;99.90
66568;DHT22;53422;49.296;6.900;2024-03-02T05:44:17;7.00;99.90
66568;DHT22;53422;49.296;6.900;2024-03-02T05:46:44;7.00;99.90
66568;DHT22;53422;49.296;6.900;2024-03-02T05:49:10;7.00;99.90
66568;DHT22;53422;49.296;6.900;2024-03-02T05:51:35;7.00;99.90
66568;DHT22;53422;49.296;6.900;2024-03-02T05:54:01;6.90;99.90
66568;DHT22;53422;49.296;6.900;2024-03-02T05:56:27;6.90;99.90
66568;DHT22;53422;49.296;6.900;2024-03-02T05:58:53;6.80;99.90
66568;DHT22;53422;49.296;6.900;2024-03-02T06:01:33;6.90;99.90
66568;DHT22;53422;49.296;6.900;2024-03-02T06:03:59;6.90;99.90
66568;DHT22;53422;49.296;6.900;2024-03-02T06:06:25;6.90;99.90
66568;DHT22;53422;49.296;6.900;2024-03-02T06:08:51;6.90;99.90
66568;DHT22;53422;49.296;6.900;2024-03-02T06:11:17;6.90;99.90
66568;DHT22;53422;49.296;6.900;2024-03-02T06:13:42;6.90;99.90
66568;DHT22;53422;49.296;6.900;2024-03-02T06:16:08;6.90;99.90
66568;DHT22;53422;49.296;6.900;2024-03-02T06:18:37;7.00;99.90
66568;DHT22;53422;49.296;6.900;2024-03-02T06:21:03;6.90;99.90
66568;DHT22;53422;49.296;6.900;2024-03-02T06:23:28;6.90;99.90
66568;DHT22;53422;49.296;6.900;2024-03-02T06:25:54;6.80;99.90
66568;DHT22;53422;49.296;6.900;2024-03-02T06:28:20;6.80;99.90
66568;DHT22;53422;49.296;6.900;2024-03-02T06:30:46;6.80;99.90
66568;DHT22;53422;49.296;6.900;2024-03-02T06:33:11;6.80;99.90
66568;DHT22;53422;49.296;6.900;2024-03-02T06:35:37;6.90;99.90
66568;DHT22;53422;49.296;6.900;2024-03-02T06:38:03;6.90;99.90
66568;DHT22;53422;49.296;6.900;2024-03-02T06:40:29;6.80;99.90
66568;DHT22;53422;49.296;6.900;2024-03-02T06:42:54;6.80;99.90
66568;DHT22;53422;49.296;6.900;2024-03-02T06:45:20;6.80;99.90
66568;DHT22;53422;49.296;6.900;2024-03-02T06:47:46;6.80;99.90
66568;DHT22;53422;49.296;6.900;2024-03-02T06:50:12;6.80;99.90
66568;DHT22;53422;49.296;6.900;2024-03-02T06:52:37;6.80;99.90
66568;DHT22;53422;49.296;6.900;2024-03-02T06:55:04;6.70;99.90
66568;DHT22;53422;49.296;6.900;2024-03-02T06:57:30;6.80;99.90
66568;DHT22;53422;49.296;6.900;2024-03-02T06:59:56;6.80;99.90
66568;DHT22;53422;49.296;6.900;2024-03-02T07:02:26;6.80;99.90
66568;DHT22;53422;49.296;6.900;2024-03-02T07:04:55;6.90;99.90
66568;DHT22;53422;49.296;6.900;2024-03-02T07:07:20;6.90;99.90
66568;DHT22;53422;49.296;6.900;2024-03-02T07:09:46;6.90;99.90
66568;DHT22;53422;49.296;6.900;2024-03-02T07:12:13;6.90;99.90
66568;DHT22;53422;49.296;6.900;2024-03-02T07:14:39;6.90;99.90
66568;DHT22;53422;49.296;6.900;2024-03-02T07:17:37;6.90;99.90
66568;DHT22;53422;49.296;6.900;2024-03-02T07:20:03;6.90;99.90
66568;DHT22;53422;49.296;6.900;2024-03-02T07:22:29;6.90;99.90
66568;DHT22;53422;49.296;6.900;2024-03-02T07:24:55;6.90;99.90
66568;DHT22;53422;49.296;6.900;2024-03-02T07:27:21;6.90;99.90
66568;DHT22;53422;49.296;6.900;2024-03-02T07:29:46;6.90;99.90
66568;DHT22;53422;49.296;6.900;2024-03-02T07:32:12;6.90;99.90
66568;DHT22;53422;49.296;6.900;2024-03-02T07:34:38;6.90;99.90
66568;DHT22;53422;49.296;6.900;2024-03-02T07:37:04;6.90;99.90
66568;DHT22;53422;49.296;6.900;2024-03-02T07:39:30;6.90;99.90
66568;DHT22;53422;49.296;6.900;2024-03-02T07:41:56;6.90;99.90
66568;DHT22;53422;49.296;6.900;2024-03-02T07:44:21;6.90;99.90
66568;DHT22;53422;49.296;6.900;2024-03-02T07:46:48;6.90;99.90
66568;DHT22;53422;49.296;6.900;2024-03-02T07:49:20;6.90;99.90
66568;DHT22;53422;49.296;6.900;2024-03-02T07:51:46;6.90;99.90
66568;DHT22;53422;49.296;6.900;2024-03-02T07:54:11;7.00;99.90
66568;DHT22;53422;49.296;6.900;2024-03-02T07:56:37;7.00;99.90
66568;DHT22;53422;49.296;6.900;2024-03-02T07:59:04;7.00;99.90
66568;DHT22;53422;49.296;6.900;2024-03-02T08:01:31;7.10;99.90
66568;DHT22;53422;49.296;6.900;2024-03-02T08:04:01;7.10;99.90
66568;DHT22;53422;49.296;6.900;2024-03-02T08:06:29;7.10;99.90
66568;DHT22;53422;49.296;6.900;2024-03-02T08:08:56;7.10;99.90
66568;DHT22;53422;49.296;6.900;2024-03-02T08:11:22;7.10;99.90
66568;DHT22;53422;49.296;6.900;2024-03-02T08:13:48;7.10;99.90
66568;DHT22;53422;49.296;6.900;2024-03-02T08:16:17;7.10;99.90
66568;DHT22;53422;49.296;6.900;2024-03-02T08:18:48;7.10;99.90
66568;DHT22;53422;49.296;6.900;2024-03-02T08:21:13;7.10;99.90
66568;DHT22;53422;49.296;6.900;2024-03-02T08:23:40;7.10;99.90
66568;DHT22;53422;49.296;6.900;2024-03-02T08:26:08;7.10;99.90
66568;DHT22;53422;49.296;6.900;2024-03-02T08:28:34;7.10;99.90
66568;DHT22;53422;49.296;6.900;2024-03-02T08:30:59;7.00;99.90
66568;DHT22;53422;49.296;6.900;2024-03-02T08:33:25;7.00;99.90
66568;DHT22;53422;49.296;6.900;2024-03-02T08:35:51;7.20;99.90
66568;DHT22;53422;49.296;6.900;2024-03-02T08:38:17;7.30;99.90
66568;DHT22;53422;49.296;6.900;2024-03-02T08:40:43;7.20;99.90
66568;DHT22;53422;49.296;6.900;2024-03-02T08:43:09;7.30;99.90
66568;DHT22;53422;49.296;6.900;2024-03-02T08:45:34;7.30;99.90
66568;DHT22;53422;49.296;6.900;2024-03-02T08:48:00;7.40;99.90
66568;DHT22;53422;49.296;6.900;2024-03-02T08:50:26;7.40;99.90
66568;DHT22;53422;49.296;6.900;2024-03-02T08:52:52;7.40;99.90
66568;DHT22;53422;49.296;6.900;2024-03-02T08:55:17;7.40;99.90
66568;DHT22;53422;49.296;6.900;2024-03-02T08:57:43;7.50;99.90
66568;DHT22;53422;49.296;6.900;2024-03-02T09:00:09;7.40;99.90
66568;DHT22;53422;49.296;6.900;2024-03-02T09:02:35;7.50;99.90
66568;DHT22;53422;49.296;6.900;2024-03-02T09:05:01;7.50;99.90
66568;DHT22;53422;49.296;6.900;2024-03-02T09:07:27;7.50;99.90
66568;DHT22;53422;49.296;6.900;2024-03-02T09:09:53;7.60;99.90
66568;DHT22;53422;49.296;6.900;2024-03-02T09:12:19;7.60;99.90
66568;DHT22;53422;49.296;6.900;2024-03-02T09:14:45;7.70;99.90
66568;DHT22;53422;49.296;6.900;2024-03-02T09:17:12;7.60;99.90
66568;DHT22;53422;49.296;6.900;2024-03-02T09:19:40;7.60;99.90
66568;DHT22;53422;49.296;6.900;2024-03-02T09:22:05;7.70;99.90
66568;DHT22;53422;49.296;6.900;2024-03-02T09:24:32;7.80;99.90
66568;DHT22;53422;49.296;6.900;2024-03-02T09:26:59;7.90;99.90
66568;DHT22;53422;49.296;6.900;2024-03-02T09:29:25;7.90;99.90
66568;DHT22;53422;49.296;6.900;2024-03-02T09:31:50;8.10;99.90
66568;DHT22;53422;49.296;6.900;2024-03-02T09:34:16;8.10;99.90
66568;DHT22;53422;49.296;6.900;2024-03-02T09:36:42;8.20;99.90
66568;DHT22;53422;49.296;6.900;2024-03-02T09:39:08;8.30;99.90
66568;DHT22;53422;49.296;6.900;2024-03-02T09:41:38;8.40;99.90
66568;DHT22;53422;49.296;6.900;2024-03-02T09:44:05;8.30;99.90
66568;DHT22;53422;49.296;6.900;2024-03-02T09:46:31;8.30;99.90
66568;DHT22;53422;49.296;6.900;2024-03-02T09:48:56;8.40;99.90
66568;DHT22;53422;49.296;6.900;2024-03-02T09:51:23;8.40;99.90
66568;DHT22;53422;49.296;6.900;2024-03-02T09:53:49;8.60;99.90
66568;DHT22;53422;49.296;6.900;2024-03-02T09:56:14;8.50;99.90
66568;DHT22;53422;49.296;6.900;2024-03-02T09:58:44;8.60;99.90
66568;DHT22;53422;49.296;6.900;2024-03-02T10:01:09;8.40;99.90
66568;DHT22;53422;49.296;6.900;2024-03-02T10:03:38;8.60;99.90
66568;DHT22;53422;49.296;6.900;2024-03-02T10:06:24;8.50;99.90
66568;DHT22;53422;49.296;6.900;2024-03-02T10:08:51;8.60;99.90
66568;DHT22;53422;49.296;6.900;2024-03-02T10:11:35;8.60;99.90
66568;DHT22;53422;49.296;6.900;2024-03-02T10:14:11;8.70;99.90
66568;DHT22;53422;49.296;6.900;2024-03-02T10:16:41;8.70;99.90
66568;DHT22;53422;49.296;6.900;2024-03-02T10:19:33;8.80;99.90
66568;DHT22;53422;49.296;6.900;2024-03-02T10:22:01;8.80;99.90
66568;DHT22;53422;49.296;6.900;2024-03-02T10:27:07;9.00;99.90
66568;DHT22;53422;49.296;6.900;2024-03-02T10:29:37;9.10;99.90
66568;DHT22;53422;49.296;6.900;2024-03-02T10:32:04;9.00;99.90
66568;DHT22;53422;49.296;6.900;2024-03-02T10:34:31;9.60;95.20
66568;DHT22;53422;49.296;6.900;2024-03-02T10:36:56;9.80;93.40
66568;DHT22;53422;49.296;6.900;2024-03-02T10:39:24;10.00;94.40
66568;DHT22;53422;49.296;6.900;2024-03-02T10:41:52;10.10;92.30
66568;DHT22;53422;49.296;6.900;2024-03-02T10:44:19;10.20;91.70
66568;DHT22;53422;49.296;6.900;2024-03-02T10:46:45;10.20;91.60
66568;DHT22;53422;49.296;6.900;2024-03-02T10:49:12;10.30;92.50
66568;DHT22;53422;49.296;6.900;2024-03-02T10:51:38;10.40;92.50
66568;DHT22;53422;49.296;6.900;2024-03-02T10:54:04;10.50;90.50
66568;DHT22;53422;49.296;6.900;2024-03-02T10:56:38;10.50;90.40
66568;DHT22;53422;49.296;6.900;2024-03-02T10:59:16;10.50;91.40
66568;DHT22;53422;49.296;6.900;2024-03-02T11:01:46;10.50;90.40
66568;DHT22;53422;49.296;6.900;2024-03-02T11:04:13;10.60;90.70
66568;DHT22;53422;49.296;6.900;2024-03-02T11:06:43;10.70;91.20
66568;DHT22;53422;49.296;6.900;2024-03-02T11:09:12;10.80;90.00
66568;DHT22;53422;49.296;6.900;2024-03-02T11:11:43;10.80;89.50
66568;DHT22;53422;49.296;6.900;2024-03-02T11:14:14;10.80;89.90
66568;DHT22;53422;49.296;6.900;2024-03-02T11:16:42;10.80;87.50
66568;DHT22;53422;49.296;6.900;2024-03-02T11:19:15;10.80;91.20
66568;DHT22;53422;49.296;6.900;2024-03-02T11:21:42;10.90;90.30
66568;DHT22;53422;49.296;6.900;2024-03-02T11:26:50;10.80;90.40
66568;DHT22;53422;49.296;6.900;2024-03-02T11:32:25;10.90;89.40
66568;DHT22;53422;49.296;6.900;2024-03-02T11:34:51;11.00;88.10
66568;DHT22;53422;49.296;6.900;2024-03-02T11:37:18;11.10;87.00
66568;DHT22;53422;49.296;6.900;2024-03-02T11:39:49;11.20;88.80
66568;DHT22;53422;49.296;6.900;2024-03-02T11:42:16;11.30;86.50
66568;DHT22;53422;49.296;6.900;2024-03-02T11:44:46;11.30;89.50
66568;DHT22;53422;49.296;6.900;2024-03-02T11:47:15;11.50;88.90
66568;DHT22;53422;49.296;6.900;2024-03-02T11:49:45;11.70;86.20
66568;DHT22;53422;49.296;6.900;2024-03-02T11:52:15;11.80;84.70
66568;DHT22;53422;49.296;6.900;2024-03-02T11:54:45;11.90;87.40
66568;DHT22;53422;49.296;6.900;2024-03-02T11:57:18;12.10;86.50
66568;DHT22;53422;49.296;6.900;2024-03-02T11:59:53;12.10;84.40
66568;DHT22;53422;49.296;6.900;2024-03-02T12:02:19;12.10;86.20
66568;DHT22;53422;49.296;6.900;2024-03-02T12:04:46;12.10;83.50
66568;DHT22;53422;49.296;6.900;2024-03-02T12:07:19;12.00;83.70
66568;DHT22;53422;49.296;6.900;2024-03-02T12:09:46;11.90;84.80
66568;DHT22;53422;49.296;6.900;2024-03-02T12:12:12;12.10;84.70
66568;DHT22;53422;49.296;6.900;2024-03-02T12:14:50;12.10;85.00
66568;DHT22;53422;49.296;6.900;2024-03-02T12:17:16;12.10;82.70
66568;DHT22;53422;49.296;6.900;2024-03-02T12:19:41;11.90;84.20
66568;DHT22;53422;49.296;6.900;2024-03-02T12:22:07;12.10;86.10
66568;DHT22;53422;49.296;6.900;2024-03-02T12:24:33;11.90;84.00
66568;DHT22;53422;49.296;6.900;2024-03-02T12:26:58;11.80;86.10
66568;DHT22;53422;49.296;6.900;2024-03-02T12:29:24;11.80;84.60
66568;DHT22;53422;49.296;6.900;2024-03-02T12:31:51;11.80;86.30
66568;DHT22;53422;49.296;6.900;2024-03-02T12:34:21;11.80;86.20
66568;DHT22;53422;49.296;6.900;2024-03-02T12:36:48;11.70;84.30
66568;DHT22;53422;49.296;6.900;2024-03-02T12:39:16;11.90;85.90
66568;DHT22;53422;49.296;6.900;2024-03-02T12:41:42;11.80;85.20
66568;DHT22;53422;49.296;6.900;2024-03-02T12:44:08;11.80;84.70
66568;DHT22;53422;49.296;6.900;2024-03-02T12:46:34;11.90;85.00
66568;DHT22;53422;49.296;6.900;2024-03-02T12:49:09;11.80;84.70
66568;DHT22;53422;49.296;6.900;2024-03-02T12:51:36;11.80;84.60
66568;DHT22;53422;49.296;6.900;2024-03-02T12:54:02;11.90;86.80
66568;DHT22;53422;49.296;6.900;2024-03-02T12:56:29;11.90;86.90
66568;DHT22;53422;49.296;6.900;2024-03-02T12:58:55;11.90;85.60
66568;DHT22;53422;49.296;6.900;2024-03-02T13:01:21;11.80;84.50
66568;DHT22;53422;49.296;6.900;2024-03-02T13:03:50;11.80;84.70
66568;DHT22;53422;49.296;6.900;2024-03-02T13:06:21;11.80;87.10
66568;DHT22;53422;49.296;6.900;2024-03-02T13:08:46;11.80;88.10
66568;DHT22;53422;49.296;6.900;2024-03-02T13:11:13;11.80;88.30
66568;DHT22;53422;49.296;6.900;2024-03-02T13:13:39;11.80;87.50
66568;DHT22;53422;49.296;6.900;2024-03-02T13:16:09;11.90;86.70
66568;DHT22;53422;49.296;6.900;2024-03-02T13:18:35;11.90;85.20
66568;DHT22;53422;49.296;6.900;2024-03-02T13:21:01;11.80;86.20
66568;DHT22;53422;49.296;6.900;2024-03-02T13:23:27;11.70;85.90
66568;DHT22;53422;49.296;6.900;2024-03-02T13:25:54;11.80;85.00
66568;DHT22;53422;49.296;6.900;2024-03-02T13:28:20;11.80;86.00
66568;DHT22;53422;49.296;6.900;2024-03-02T13:30:45;11.70;85.70
66568;DHT22;53422;49.296;6.900;2024-03-02T13:33:11;11.80;86.20
66568;DHT22;53422;49.296;6.900;2024-03-02T13:35:37;12.00;86.80
66568;DHT22;53422;49.296;6.900;2024-03-02T13:38:03;12.00;83.10
66568;DHT22;53422;49.296;6.900;2024-03-02T13:40:28;11.90;85.40
66568;DHT22;53422;49.296;6.900;2024-03-02T13:42:56;11.80;85.40
66568;DHT22;53422;49.296;6.900;2024-03-02T13:45:22;11.80;85.40
66568;DHT22;53422;49.296;6.900;2024-03-02T13:47:47;11.90;86.40
66568;DHT22;53422;49.296;6.900;2024-03-02T13:50:13;11.80;86.30
66568;DHT22;53422;49.296;6.900;2024-03-02T13:52:39;11.80;86.90
66568;DHT22;53422;49.296;6.900;2024-03-02T13:55:05;11.70;88.50
66568;DHT22;53422;49.296;6.900;2024-03-02T13:57:31;11.70;89.50
66568;DHT22;53422;49.296;6.900;2024-03-02T13:59:57;11.70;90.30
66568;DHT22;53422;49.296;6.900;2024-03-02T14:02:22;11.80;90.90
66568;DHT22;53422;49.296;6.900;2024-03-02T14:04:48;12.00;91.00
66568;DHT22;53422;49.296;6.900;2024-03-02T14:07:15;11.90;92.50
66568;DHT22;53422;49.296;6.900;2024-03-02T14:09:40;11.80;91.20
66568;DHT22;53422;49.296;6.900;2024-03-02T14:12:06;11.80;93.00
66568;DHT22;53422;49.296;6.900;2024-03-02T14:14:32;11.80;92.30
66568;DHT22;53422;49.296;6.900;2024-03-02T14:16:58;11.70;91.80
66568;DHT22;53422;49.296;6.900;2024-03-02T14:19:28;11.60;93.00
66568;DHT22;53422;49.296;6.900;2024-03-02T14:21:54;11.70;94.50
66568;DHT22;53422;49.296;6.900;2024-03-02T14:24:20;11.80;94.20
66568;DHT22;53422;49.296;6.900;2024-03-02T14:26:49;12.00;94.70
66568;DHT22;53422;49.296;6.900;2024-03-02T14:29:15;12.00;93.00
66568;DHT22;53422;49.296;6.900;2024-03-02T14:31:40;11.90;94.10
66568;DHT22;53422;49.296;6.900;2024-03-02T14:34:06;11.90;92.70
66568;DHT22;53422;49.296;6.900;2024-03-02T14:36:31;11.90;93.50
66568;DHT22;53422;49.296;6.900;2024-03-02T14:38:57;12.10;93.50
66568;DHT22;53422;49.296;6.900;2024-03-02T14:41:23;12.10;92.70
66568;DHT22;53422;49.296;6.900;2024-03-02T14:43:50;12.00;92.10
66568;DHT22;53422;49.296;6.900;2024-03-02T14:46:16;11.90;92.10
66568;DHT22;53422;49.296;6.900;2024-03-02T14:48:49;11.80;91.80
66568;DHT22;53422;49.296;6.900;2024-03-02T14:51:15;11.70;92.10
66568;DHT22;53422;49.296;6.900;2024-03-02T14:53:41;11.70;91.00
66568;DHT22;53422;49.296;6.900;2024-03-02T14:56:07;11.70;90.90
66568;DHT22;53422;49.296;6.900;2024-03-02T14:58:32;11.70;91.60
66568;DHT22;53422;49.296;6.900;2024-03-02T15:00:58;11.70;92.60
66568;DHT22;53422;49.296;6.900;2024-03-02T15:03:24;11.60;92.80
66568;DHT22;53422;49.296;6.900;2024-03-02T15:05:49;11.60;91.90
66568;DHT22;53422;49.296;6.900;2024-03-02T15:08:17;11.50;92.40
66568;DHT22;53422;49.296;6.900;2024-03-02T15:10:43;11.50;93.20
66568;DHT22;53422;49.296;6.900;2024-03-02T15:13:08;11.60;93.10
66568;DHT22;53422;49.296;6.900;2024-03-02T15:15:34;11.50;92.90
66568;DHT22;53422;49.296;6.900;2024-03-02T15:17:59;11.60;92.70
66568;DHT22;53422;49.296;6.900;2024-03-02T15:20:25;11.60;92.40
66568;DHT22;53422;49.296;6.900;2024-03-02T15:22:51;11.70;91.50
66568;DHT22;53422;49.296;6.900;2024-03-02T15:25:16;11.80;92.10
66568;DHT22;53422;49.296;6.900;2024-03-02T15:27:42;11.80;91.60
66568;DHT22;53422;49.296;6.900;2024-03-02T15:30:08;11.70;92.60
66568;DHT22;53422;49.296;6.900;2024-03-02T15:32:34;11.60;91.50
66568;DHT22;53422;49.296;6.900;2024-03-02T15:35:00;11.60;91.70
66568;DHT22;53422;49.296;6.900;2024-03-02T15:37:26;11.50;91.40
66568;DHT22;53422;49.296;6.900;2024-03-02T15:39:52;11.60;92.30
66568;DHT22;53422;49.296;6.900;2024-03-02T15:42:17;11.60;93.20
66568;DHT22;53422;49.296;6.900;2024-03-02T15:44:43;11.50;92.00
66568;DHT22;53422;49.296;6.900;2024-03-02T15:47:09;11.50;92.10
66568;DHT22;53422;49.296;6.900;2024-03-02T15:49:35;11.50;92.10